sensor_id;sensor_type;location;lat;lon;timestamp;pressure;altitude;pressure_sealevel;temperature;humidity
71642;BME280;60657;50.122;14.468;2024-03-17T00:02:22;98920.97676955398;;;7.370489051651788;66.52994583047227
71642;BME280;60657;50.122;14.468;2024-03-17T00:05:30;98910.91048505626;;;7.330434119172963;66.62149996185245
71642;BME280;60657;50.122;14.468;2024-03-17T00:08:38;98905.0870592035;;;7.295719844357976;66.55664911879148
71642;BME280;60657;50.122;14.468;2024-03-17T00:11:45;98908.43214398394;;;7.28236820019837;66.80842298008697
71642;BME280;60657;50.122;14.468;2024-03-17T00:14:53;98904.84012862237;;;7.167544060425726;67.21087968261234
71642;BME280;60657;50.122;14.468;2024-03-17T00:18:00;98901.0576088449;;;7.338445105668725;66.9667353322652
71642;BME280;60657;50.122;14.468;2024-03-17T00:21:12;98897.62189377143;;;7.252994583047226;67.29289692530709
71642;BME280;60657;50.122;14.468;2024-03-17T00:24:20;98902.54768851322;;;7.204928664072632;67.19562066071565
71642;BME280;60657;50.122;14.468;2024-03-17T00:27:28;98900.62723689694;;;7.132829785610745;67.57900358587014
71642;BME280;60657;50.122;14.468;2024-03-17T00:30:35;98900.50125566317;;;7.092774853131914;67.67818722819867
71642;BME280;60657;50.122;14.468;2024-03-17T00:33:43;98904.3950931428;;;7.039368276493477;67.6591134508278
71642;BME280;60657;50.122;14.468;2024-03-17T00:36:51;98901.91812175077;;;7.0019836728465705;67.81361104753185
71642;BME280;60657;50.122;14.468;2024-03-17T00:39:59;98917.77878004777;;;6.991302357518883;67.68772411688411
71642;BME280;60657;50.122;14.468;2024-03-17T00:43:09;98920.9953640745;;;6.911192492561227;68.2046234836347
71642;BME280;60657;50.122;14.468;2024-03-17T00:46:16;98908.51255481219;;;6.897840848401614;68.0863660639353
71642;BME280;60657;50.122;14.468;2024-03-17T00:49:24;98905.87234521825;;;6.828412298771646;68.38582436865796
71642;BME280;60657;50.122;14.468;2024-03-17T00:52:34;98906.80703297822;;;6.8844892042420085;67.91470206759746
71642;BME280;60657;50.122;14.468;2024-03-17T00:55:44;98899.91775651588;;;6.79102769512474;68.22178988326849
71642;BME280;60657;50.122;14.468;2024-03-17T00:58:58;98904.83712217337;;;6.780346379797052;67.94140535591669
71642;BME280;60657;50.122;14.468;2024-03-17T01:02:06;98912.93388651224;;;6.668192568856334;68.10543984130618
71642;BME280;60657;50.122;14.468;2024-03-17T01:05:15;98903.62834037631;;;6.617456321049822;68.03868162050813
71642;BME280;60657;50.122;14.468;2024-03-17T01:08:23;98908.51060037287;;;6.593423361562522;68.36293583581292
71642;BME280;60657;50.122;14.468;2024-03-17T01:11:31;98912.83164230184;;;6.665522240024416;68.13214312962539
71642;BME280;60657;50.122;14.468;2024-03-17T01:14:39;98907.60455289231;;;6.5774013885709905;68.41443503471427
71642;BME280;60657;50.122;14.468;2024-03-17T01:17:47;98906.80256802955;;;6.5106431677729475;68.56702525368124
71642;BME280;60657;50.122;14.468;2024-03-17T01:20:56;98900.98046649515;;;6.489280537117573;68.19317921721218
71642;BME280;60657;50.122;14.468;2024-03-17T01:24:04;98909.65611048762;;;6.382467383840698;68.3820096131838
71642;BME280;60657;50.122;14.468;2024-03-17T01:27:12;98909.65611048762;;;6.323720149538417;68.2179751277943
71642;BME280;60657;50.122;14.468;2024-03-17T01:30:20;98909.65611048762;;;6.385137712672616;68.17029068436713
71642;BME280;60657;50.122;14.468;2024-03-17T01:33:28;98911.18590401679;;;6.3130388342107295;68.34004730296787
71642;BME280;60657;50.122;14.468;2024-03-17T01:36:36;98913.84032251484;;;6.355764095521479;67.92233157854581
71642;BME280;60657;50.122;14.468;2024-03-17T01:39:48;98906.20087748513;;;6.318379491874573;67.77737087052719
71642;BME280;60657;50.122;14.468;2024-03-17T01:42:56;98919.40995789807;;;6.329060807202261;67.94903486686503
71642;BME280;60657;50.122;14.468;2024-03-17T01:46:05;98905.50781672403;;;6.355764095521479;67.49889372091249
71642;BME280;60657;50.122;14.468;2024-03-17T01:49:13;98890.44597682769;;;6.262302586404211;67.70679789425498
71642;BME280;60657;50.122;14.468;2024-03-17T01:52:21;98900.05111815089;;;6.107423514152742;68.06538490882734
71642;BME280;60657;50.122;14.468;2024-03-17T01:55:29;98903.97601427227;;;6.083390554665449;68.22941939421683
71642;BME280;60657;50.122;14.468;2024-03-17T01:58:38;98902.22716209792;;;6.011291676203555;68.35530632486457
71642;BME280;60657;50.122;14.468;2024-03-17T02:01:45;98900.55323533768;;;6.011291676203555;68.46402685587854
71642;BME280;60657;50.122;14.468;2024-03-17T02:05:00;98902.4509898986;;;6.064698252841993;68.2351415274281
71642;BME280;60657;50.122;14.468;2024-03-17T02:08:15;98902.9511169402;;;5.992599374380099;68.39536125734341
71642;BME280;60657;50.122;14.468;2024-03-17T02:11:24;98896.10315606484;;;5.947203784237431;68.12832837415122
71642;BME280;60657;50.122;14.468;2024-03-17T02:14:34;98900.24999748208;;;5.944533455405505;68.24467841611353
71642;BME280;60657;50.122;14.468;2024-03-17T02:17:42;98903.90110470694;;;6.048676279850461;67.32341496910048
71642;BME280;60657;50.122;14.468;2024-03-17T02:20:50;98899.86592962379;;;6.09941252765698;67.03158617532617
71642;BME280;60657;50.122;14.468;2024-03-17T02:23:57;98913.10807229421;;;6.120775158312355;66.98580910963607
71642;BME280;60657;50.122;14.468;2024-03-17T02:27:05;98903.17639562106;;;6.088731212329293;66.97436484321355
71642;BME280;60657;50.122;14.468;2024-03-17T02:30:14;98911.24568335719;;;5.992599374380099;67.08117799649042
71642;BME280;60657;50.122;14.468;2024-03-17T02:33:22;98909.57158641692;;;5.984588387884337;67.35202563515679
71642;BME280;60657;50.122;14.468;2024-03-17T02:36:35;98910.55952020321;;;6.088731212329293;67.46456092164492
71642;BME280;60657;50.122;14.468;2024-03-17T02:39:48;98916.26806928965;;;5.992599374380099;67.25093461509117
71642;BME280;60657;50.122;14.468;2024-03-17T02:42:55;98918.01769056296;;;6.067368581673918;67.27382314793621
71642;BME280;60657;50.122;14.468;2024-03-17T02:46:03;98913.75685849124;;;6.035324635690856;67.44357976653697
71642;BME280;60657;50.122;14.468;2024-03-17T02:49:18;98914.89308589669;;;5.875104905775537;67.90325780117495
71642;BME280;60657;50.122;14.468;2024-03-17T02:52:25;98918.62742671928;;;5.995269703212024;67.55230029755093
71642;BME280;60657;50.122;14.468;2024-03-17T02:55:34;98924.18005891732;;;5.920500495918212;67.68200198367285
71642;BME280;60657;50.122;14.468;2024-03-17T02:58:42;98916.19224168456;;;6.008621347371637;67.41115434500648
71642;BME280;60657;50.122;14.468;2024-03-17T03:01:53;98911.32127713217;;;5.98992904554818;67.59426260776684
71642;BME280;60657;50.122;14.468;2024-03-17T03:05:01;98910.4842432809;;;5.98992904554818;67.4092469672694
71642;BME280;60657;50.122;14.468;2024-03-17T03:08:14;98904.62511727407;;;6.011291676203555;67.4245059891661
71642;BME280;60657;50.122;14.468;2024-03-17T03:11:22;98902.91327874549;;;5.928511482413974;67.92614633401999
71642;BME280;60657;50.122;14.468;2024-03-17T03:14:32;98898.76618547349;;;5.915159838254368;67.66674296177615
71642;BME280;60657;50.122;14.468;2024-03-17T03:17:39;98907.78338999848;;;5.901808194094755;67.90516517891203
71642;BME280;60657;50.122;14.468;2024-03-17T03:20:58;98906.79297704241;;;5.893797207598993;68.0863660639353
71642;BME280;60657;50.122;14.468;2024-03-17T03:24:07;98916.4501296503;;;5.8003356984817245;68.42015716792554
71642;BME280;60657;50.122;14.468;2024-03-17T03:27:20;98911.01690175264;;;5.9178301670862865;68.0711070420386
71642;BME280;60657;50.122;14.468;2024-03-17T03:30:28;98915.0097267932;;;5.853742275120162;68.05203326466774
71642;BME280;60657;50.122;14.468;2024-03-17T03:33:35;98905.99436000605;;;5.896467536430912;68.00625619897765
71642;BME280;60657;50.122;14.468;2024-03-17T03:36:43;98900.13490849595;;;5.8457312886244;67.81742580300603
71642;BME280;60657;50.122;14.468;2024-03-17T03:39:51;98902.4915594715;;;5.832379644464787;68.18364232852674
71642;BME280;60657;50.122;14.468;2024-03-17T03:42:59;98904.84711238503;;;5.789654383154037;68.32478828107118
71642;BME280;60657;50.122;14.468;2024-03-17T03:46:07;98896.43667596804;;;5.672159914549475;68.30380712596323
71642;BME280;60657;50.122;14.468;2024-03-17T03:49:15;98900.66145889348;;;5.704203860532537;68.46784161135271
71642;BME280;60657;50.122;14.468;2024-03-17T03:52:23;98905.83997375327;;;5.789654383154037;68.27519645990692
71642;BME280;60657;50.122;14.468;2024-03-17T03:55:31;98908.11739734586;;;5.754940108339056;68.21225299458305
71642;BME280;60657;50.122;14.468;2024-03-17T03:58:39;98905.40854202272;;;5.680170901045244;68.16266117341878
71642;BME280;60657;50.122;14.468;2024-03-17T04:01:47;98903.77379886934;;;5.6828412298771624;68.38391699092088
71642;BME280;60657;50.122;14.468;2024-03-17T04:04:55;98900.73958403897;;;5.754940108339056;68.28091859311819
71642;BME280;60657;50.122;14.468;2024-03-17T04:08:03;98896.8252172142;;;5.808346684977494;68.04631113145648
71642;BME280;60657;50.122;14.468;2024-03-17T04:11:12;98897.43016965764;;;5.728236820019838;67.85557335774777
71642;BME280;60657;50.122;14.468;2024-03-17T04:14:20;98897.46905716711;;;5.746929121843287;67.98908979934386
71642;BME280;60657;50.122;14.468;2024-03-17T04:17:28;98900.58300076496;;;5.696192874036775;67.970016021973
71642;BME280;60657;50.122;14.468;2024-03-17T04:20:36;98908.39720126416;;;5.4852368963149445;68.77683680476082
71642;BME280;60657;50.122;14.468;2024-03-17T04:23:44;98902.61698888417;;;5.519951171129932;68.74250400549325
71642;BME280;60657;50.122;14.468;2024-03-17T04:26:51;98905.80433645866;;;5.527962157625694;68.6299687190051
71642;BME280;60657;50.122;14.468;2024-03-17T04:30:05;98914.85220041138;;;5.538643472953382;68.67002365148394
71642;BME280;60657;50.122;14.468;2024-03-17T04:33:27;98914.9336893734;;;5.5653467612726;68.51743343251698
71642;BME280;60657;50.122;14.468;2024-03-17T04:36:34;98923.18535137884;;;5.538643472953382;68.63378347447929
71642;BME280;60657;50.122;14.468;2024-03-17T04:39:43;98922.8975154033;;;5.386434729533839;68.93324177920195
71642;BME280;60657;50.122;14.468;2024-03-17T04:42:53;98920.42648818702;;;5.389105058365757;69.0591287098497
71642;BME280;60657;50.122;14.468;2024-03-17T04:46:01;98918.0378838347;;;5.410467689021132;69.03051804379339
71642;BME280;60657;50.122;14.468;2024-03-17T04:49:11;98924.40624185528;;;5.37842374303807;69.18120088502327
71642;BME280;60657;50.122;14.468;2024-03-17T04:52:19;98914.18831973025;;;5.29297322041657;69.31280994888228
71642;BME280;60657;50.122;14.468;2024-03-17T04:55:28;98920.30205836295;;;5.389105058365757;69.20790417334248
71642;BME280;60657;50.122;14.468;2024-03-17T04:58:36;98918.41797118305;;;5.300984206912339;69.30327306019684
71642;BME280;60657;50.122;14.468;2024-03-17T05:01:43;98922.47925676666;;;5.295643549248496;69.45014114595254
71642;BME280;60657;50.122;14.468;2024-03-17T05:04:51;98922.81452841402;;;5.351720454718851;69.25177386129549
71642;BME280;60657;50.122;14.468;2024-03-17T05:07:59;98930.93922553169;;;5.2796215762569645;69.30327306019684
71642;BME280;60657;50.122;14.468;2024-03-17T05:11:07;98933.36789617655;;;5.290302891584652;69.38910505836576
71642;BME280;60657;50.122;14.468;2024-03-17T05:14:15;98936.29321252157;;;5.226214999618527;69.68284122987717
71642;BME280;60657;50.122;14.468;2024-03-17T05:17:23;98941.8985480966;;;5.202182040131227;69.7515068284123
71642;BME280;60657;50.122;14.468;2024-03-17T05:20:33;98939.3851998897;;;5.151445792324715;69.97467002365148
71642;BME280;60657;50.122;14.468;2024-03-17T05:23:41;98946.3994913318;;;5.095368886854352;70.13107499809263
71642;BME280;60657;50.122;14.468;2024-03-17T05:26:49;98946.3994913318;;;5.065995269703215;70.49538414587624
71642;BME280;60657;50.122;14.468;2024-03-17T05:29:58;98940.09243713315;;;5.068665598535134;70.29510948348211
71642;BME280;60657;50.122;14.468;2024-03-17T05:33:06;98946.38883154785;;;5.271610589761195;70.21690699626154
71642;BME280;60657;50.122;14.468;2024-03-17T05:36:23;98939.64409087911;;;5.25024795910582;70.13679713130388
71642;BME280;60657;50.122;14.468;2024-03-17T05:39:31;98944.75606255358;;;5.319676508735789;70.18638895246815
71642;BME280;60657;50.122;14.468;2024-03-17T05:42:41;98949.61644052977;;;5.568017090104526;69.44823376821546
71642;BME280;60657;50.122;14.468;2024-03-17T05:45:49;98958.27945165614;;;5.7362478065156;69.1621271076524
71642;BME280;60657;50.122;14.468;2024-03-17T05:48:57;98950.74058824201;;;6.008621347371637;68.08827344167238
71642;BME280;60657;50.122;14.468;2024-03-17T05:52:05;98958.81381238085;;;6.280994888227667;67.50652323186084
71642;BME280;60657;50.122;14.468;2024-03-17T05:55:13;98958.2386974102;;;6.382467383840698;67.01251239795529
71642;BME280;60657;50.122;14.468;2024-03-17T05:58:21;98961.69874242293;;;6.446555275806823;66.7759975585565
71642;BME280;60657;50.122;14.468;2024-03-17T06:01:29;98965.92178820721;;;6.507972838941022;66.68825818265049
71642;BME280;60657;50.122;14.468;2024-03-17T06:04:37;98966.39254585572;;;6.678873884184021;66.10650797283894
71642;BME280;60657;50.122;14.468;2024-03-17T06:07:45;98971.06889071365;;;6.911192492561227;65.49042496375982
71642;BME280;60657;50.122;14.468;2024-03-17T06:10:53;98970.53863707099;;;7.0527199206530895;65.5247577630274
71642;BME280;60657;50.122;14.468;2024-03-17T06:14:01;98966.14326295027;;;7.3090714885175885;65.00595101853972
71642;BME280;60657;50.122;14.468;2024-03-17T06:17:13;98964.88104312652;;;7.51201647974365;64.50240329594872
71642;BME280;60657;50.122;14.468;2024-03-17T06:20:21;98964.35122762265;;;7.648203250171662;63.705119401846346
71642;BME280;60657;50.122;14.468;2024-03-17T06:23:32;98966.95130980662;;;7.709620813305868;63.29694056610971
71642;BME280;60657;50.122;14.468;2024-03-17T06:26:44;98968.89076973092;;;7.835126268406192;63.11955443656062
71642;BME280;60657;50.122;14.468;2024-03-17T06:29:52;98971.25327118167;;;7.757686732280462;63.842450598916614
71642;BME280;60657;50.122;14.468;2024-03-17T06:32:59;98975.37675237401;;;7.76035706111238;63.18440527962157
71642;BME280;60657;50.122;14.468;2024-03-17T06:36:11;98968.51107574765;;;8.048752574959948;62.3546959639887
71642;BME280;60657;50.122;14.468;2024-03-17T06:39:20;98975.11821145819;;;8.048752574959948;62.39093614099336
71642;BME280;60657;50.122;14.468;2024-03-17T06:42:28;98977.2821844481;;;8.417257953765166;61.318989852750434
71642;BME280;60657;50.122;14.468;2024-03-17T06:45:36;98978.3279060078;;;8.64423590447852;60.99473563744564
71642;BME280;60657;50.122;14.468;2024-03-17T06:48:44;98978.85204820921;;;8.945983062485695;59.8522163729305
71642;BME280;60657;50.122;14.468;2024-03-17T06:51:51;98977.94340908993;;;8.844510566872664;60.36339360646983
71642;BME280;60657;50.122;14.468;2024-03-17T06:54:59;98978.99496534484;;;8.903257801174945;59.331502250705725
71642;BME280;60657;50.122;14.468;2024-03-17T06:58:12;98981.71131538431;;;9.164950026703288;58.80888075074388
71642;BME280;60657;50.122;14.468;2024-03-17T07:01:20;98978.54756087453;;;9.223697261005569;58.24811169604028
71642;BME280;60657;50.122;14.468;2024-03-17T07:04:28;98990.74556870243;;;8.970016021972988;58.5399404898146
71642;BME280;60657;50.122;14.468;2024-03-17T07:07:36;98994.76092414945;;;8.879224841687645;58.51514457923247
71642;BME280;60657;50.122;14.468;2024-03-17T07:10:54;98991.6047969289;;;9.020752269779507;59.27809567406729
71642;BME280;60657;50.122;14.468;2024-03-17T07:14:07;98986.99341438792;;;9.098191805905245;57.775082017242696
71642;BME280;60657;50.122;14.468;2024-03-17T07:17:15;98986.26514657479;;;9.2637521934844;58.08026245517662
71642;BME280;60657;50.122;14.468;2024-03-17T07:20:24;98999.96564860728;;;9.605554283970399;57.71213855191882
71642;BME280;60657;50.122;14.468;2024-03-17T07:23:31;98994.36696681267;;;9.811169604028379;57.32875562676433
71642;BME280;60657;50.122;14.468;2024-03-17T07:26:40;98989.64388899729;;;10.10757610437171;56.34264133669032
71642;BME280;60657;50.122;14.468;2024-03-17T07:29:48;98980.0626913189;;;10.393301289387352;55.84863050278477
71642;BME280;60657;50.122;14.468;2024-03-17T07:32:56;98972.85040328115;;;10.689707789730676;55.10666056305791
71642;BME280;60657;50.122;14.468;2024-03-17T07:36:05;98978.01569910254;;;10.900663767452507;54.85297932402533
71642;BME280;60657;50.122;14.468;2024-03-17T07:39:13;98975.38196542983;;;10.71908140688182;54.83962767986572
71642;BME280;60657;50.122;14.468;2024-03-17T07:42:21;98985.1036411902;;;10.339894712748915;55.34508278019379
71642;BME280;60657;50.122;14.468;2024-03-17T07:45:29;98984.26853378059;;;10.371938658731978;55.516746776531626
71642;BME280;60657;50.122;14.468;2024-03-17T07:48:39;98989.96021044845;;;10.187685969329365;55.81811245899138
71642;BME280;60657;50.122;14.468;2024-03-17T07:51:48;98989.36769624964;;;10.54818036163882;55.245899137865266
71642;BME280;60657;50.122;14.468;2024-03-17T07:54:56;98985.55368835031;;;10.986114290074006;54.488670176241705
71642;BME280;60657;50.122;14.468;2024-03-17T07:58:04;98978.9238050972;;;10.943389028763256;54.15487907225147
71642;BME280;60657;50.122;14.468;2024-03-17T08:01:16;98967.5992559676;;;11.445410849164567;53.2813000686656
71642;BME280;60657;50.122;14.468;2024-03-17T08:04:24;98962.61126117328;;;11.39200427252613;53.22980086976425
71642;BME280;60657;50.122;14.468;2024-03-17T08:07:32;98967.76580490934;;;11.827267872129397;53.22980086976425
71642;BME280;60657;50.122;14.468;2024-03-17T08:10:40;98954.71095411207;;;12.57495994506752;50.99053940642405
71642;BME280;60657;50.122;14.468;2024-03-17T08:13:49;98948.07853437075;;;12.711146715495538;50.687266346227204
71642;BME280;60657;50.122;14.468;2024-03-17T08:16:57;98948.92057125196;;;12.8046082246128;50.939040207522694
71642;BME280;60657;50.122;14.468;2024-03-17T08:20:05;98936.41603105288;;;13.109025711451899;49.996795605401694
71642;BME280;60657;50.122;14.468;2024-03-17T08:23:14;98932.25740307942;;;13.044937819485774;50.16083009079118
71642;BME280;60657;50.122;14.468;2024-03-17T08:26:22;98931.40724408758;;;13.234531166552223;48.37743190661479
71642;BME280;60657;50.122;14.468;2024-03-17T08:29:30;98933.09145964067;;;12.841992828259706;49.512321660181584
71642;BME280;60657;50.122;14.468;2024-03-17T08:32:38;98942.2443823869;;;12.561608300907913;49.75074387731746
71642;BME280;60657;50.122;14.468;2024-03-17T08:35:54;98946.40855726875;;;12.521553368429082;49.86137178606851
71642;BME280;60657;50.122;14.468;2024-03-17T08:39:04;98943.92166661574;;;12.780575265125506;49.93575951781491
71642;BME280;60657;50.122;14.468;2024-03-17T08:42:13;98929.75228687486;;;13.079652094300755;49.19951171129931
71642;BME280;60657;50.122;14.468;2024-03-17T08:45:21;98941.41838505382;;;12.652399481193257;50.20851453421836
71642;BME280;60657;50.122;14.468;2024-03-17T08:48:33;98932.25799305635;;;12.855344472419318;51.44258793011368
71642;BME280;60657;50.122;14.468;2024-03-17T08:51:43;98943.07629905643;;;12.521553368429082;50.83985656519417
71642;BME280;60657;50.122;14.468;2024-03-17T08:54:50;98948.8308513586;;;12.102311741817353;50.11314564736401
71642;BME280;60657;50.122;14.468;2024-03-17T08:57:58;98952.8359921044;;;11.74982833600366;51.22705424582284
71642;BME280;60657;50.122;14.468;2024-03-17T09:01:06;98941.14617868022;;;11.605630579079879;51.2632944228275
71642;BME280;60657;50.122;14.468;2024-03-17T09:04:16;98941.9446419874;;;11.482795452811473;51.22705424582284
71642;BME280;60657;50.122;14.468;2024-03-17T09:07:24;98938.65107000025;;;11.573586633096816;51.74586099031052
71642;BME280;60657;50.122;14.468;2024-03-17T09:10:32;98933.62615022546;;;11.512169069962617;51.73250934615091
71642;BME280;60657;50.122;14.468;2024-03-17T09:13:40;98940.02770353518;;;11.116960402838181;52.84641794460975
71642;BME280;60657;50.122;14.468;2024-03-17T09:16:48;98928.63653397889;;;11.52018005645838;53.37094682230869
71642;BME280;60657;50.122;14.468;2024-03-17T09:20:00;98932.93945523557;;;11.91805905241474;51.65430685893034
71642;BME280;60657;50.122;14.468;2024-03-17T09:23:08;98913.91308700293;;;12.436102845807582;50.12268253604944
71642;BME280;60657;50.122;14.468;2024-03-17T09:26:20;98891.43143623027;;;12.767223620965893;48.821850919356066
71642;BME280;60657;50.122;14.468;2024-03-17T09:29:28;98892.26834737383;;;12.497520408941789;47.50957503624018
71642;BME280;60657;50.122;14.468;2024-03-17T09:32:39;98894.72833738293;;;12.14770733196002;47.45044632639048
71642;BME280;60657;50.122;14.468;2024-03-17T09:35:54;98904.62929844722;;;11.733806363012128;48.222934309910734
71642;BME280;60657;50.122;14.468;2024-03-17T09:39:03;98918.60015604399;;;11.426718547341117;48.57579919127184
71642;BME280;60657;50.122;14.468;2024-03-17T09:42:15;98900.2917675116;;;11.40802624551766;49.52567330434119
71642;BME280;60657;50.122;14.468;2024-03-17T09:45:25;98906.07607552335;;;11.279850461585411;50.39543755245289
71642;BME280;60657;50.122;14.468;2024-03-17T09:48:34;98910.94475883874;;;11.114290074006256;50.893263141832605
71642;BME280;60657;50.122;14.468;2024-03-17T09:51:42;98904.43133356363;;;11.269169146257724;51.30144197756924
71642;BME280;60657;50.122;14.468;2024-03-17T09:54:54;98897.18366908042;;;12.040894178683146;50.08834973678187
71642;BME280;60657;50.122;14.468;2024-03-17T09:58:08;98868.09264001355;;;12.876707103074693;46.786678873884185
71642;BME280;60657;50.122;14.468;2024-03-17T10:01:23;98863.08862152966;;;12.9140917067216;47.0346379797055
71642;BME280;60657;50.122;14.468;2024-03-17T10:04:32;98869.76166041216;;;12.876707103074693;47.28259708552682
71642;BME280;60657;50.122;14.468;2024-03-17T10:07:40;98873.10166617607;;;12.6577401388571;46.805752651255055
71642;BME280;60657;50.122;14.468;2024-03-17T10:10:52;98884.75012020086;;;12.267872129396508;48.61203936827649
71642;BME280;60657;50.122;14.468;2024-03-17T10:14:03;98885.51605722535;;;11.87533379110399;48.905775539787896
71642;BME280;60657;50.122;14.468;2024-03-17T10:17:13;98890.32206159057;;;11.335927367055774;49.99298084992752
71642;BME280;60657;50.122;14.468;2024-03-17T10:20:37;98904.20600093642;;;10.943389028763256;51.070649271381704
71642;BME280;60657;50.122;14.468;2024-03-17T10:23:46;98904.04974788081;;;10.673685816739145;51.473105973907074
71642;BME280;60657;50.122;14.468;2024-03-17T10:27:13;98901.55810842072;;;10.700389105058363;54.27122911421378
71642;BME280;60657;50.122;14.468;2024-03-17T10:30:22;98909.07704604472;;;10.78049897001602;54.776684214541845
71642;BME280;60657;50.122;14.468;2024-03-17T10:33:32;98895.37679729279;;;11.589608606088348;50.68154421301595
71642;BME280;60657;50.122;14.468;2024-03-17T10:36:40;98881.39339511596;;;12.030212863355459;48.43656061646448
71642;BME280;60657;50.122;14.468;2024-03-17T10:39:49;98883.84931531826;;;11.85130083161669;46.04470893415732
71642;BME280;60657;50.122;14.468;2024-03-17T10:43:00;98882.96746110101;;;11.715114061188679;46.83054856183718
71642;BME280;60657;50.122;14.468;2024-03-17T10:46:08;98882.12405200816;;;11.701762417029066;47.347447928587776
71642;BME280;60657;50.122;14.468;2024-03-17T10:49:23;98883.75922179318;;;11.632333867399097;48.289692530708784
71642;BME280;60657;50.122;14.468;2024-03-17T10:52:35;98881.30539756382;;;11.659037155718316;48.37933928435187
71642;BME280;60657;50.122;14.468;2024-03-17T10:55:57;98883.67976650246;;;11.402685587853817;48.22102693217365
71642;BME280;60657;50.122;14.468;2024-03-17T10:59:15;98881.24148971647;;;11.506828412298773;48.58915083543145
71642;BME280;60657;50.122;14.468;2024-03-17T11:02:29;98869.71913869189;;;12.006179903868166;48.05317769130999
71642;BME280;60657;50.122;14.468;2024-03-17T11:05:37;98862.28314576136;;;12.422751201647976;46.618829633020525
71642;BME280;60657;50.122;14.468;2024-03-17T11:08:48;98858.94931349198;;;12.305256733043414;46.508201724269476
71642;BME280;60657;50.122;14.468;2024-03-17T11:11:58;98853.94285563231;;;12.748531319142444;45.13298237582971
71642;BME280;60657;50.122;14.468;2024-03-17T11:15:40;98849.64770610609;;;13.346684977492941;45.01853971160449
71642;BME280;60657;50.122;14.468;2024-03-17T11:18:48;98823.95755038068;;;14.47089341573205;41.99153124284733
71642;BME280;60657;50.122;14.468;2024-03-17T11:21:56;98808.5367003176;;;14.898146028839548;41.58907454032197
71642;BME280;60657;50.122;14.468;2024-03-17T11:25:29;98808.5367003176;;;14.99694819562066;41.80651560234989
71642;BME280;60657;50.122;14.468;2024-03-17T11:28:46;98818.8955498832;;;14.412146181429769;42.90707255664912
71642;BME280;60657;50.122;14.468;2024-03-17T11:31:59;98810.02750224237;;;13.974212252994583;43.45639734493019